createdAt,value
2017-07-24T00:01:43.533Z,99.60
2017-07-24T00:04:11.130Z,99.60
2017-07-24T00:06:39.469Z,99.60
2017-07-24T00:09:07.028Z,99.50
2017-07-24T00:11:34.594Z,99.90
2017-07-24T00:14:02.238Z,99.90
2017-07-24T00:16:29.831Z,97.20
2017-07-24T00:18:57.389Z,97.30
2017-07-24T00:21:24.970Z,97.20
2017-07-24T00:23:52.518Z,97.40
2017-07-24T00:26:20.117Z,96.10
2017-07-24T00:28:47.711Z,96.70
2017-07-24T00:31:15.259Z,96.50
2017-07-24T00:33:43.606Z,97.90
2017-07-24T00:36:11.271Z,97.80
2017-07-24T00:38:49.757Z,99.90
2017-07-24T00:41:17.507Z,99.90
2017-07-24T00:43:45.082Z,99.30
2017-07-24T00:46:12.811Z,99.90
2017-07-24T00:48:42.108Z,99.90
2017-07-24T00:51:09.910Z,99.90
2017-07-24T00:53:37.673Z,99.90
2017-07-24T00:56:09.090Z,99.90
2017-07-24T00:58:36.686Z,99.90
2017-07-24T01:01:04.316Z,99.90
2017-07-24T01:03:32.682Z,99.90
2017-07-24T01:06:01.017Z,99.90
2017-07-24T01:08:28.570Z,99.90
2017-07-24T01:10:56.546Z,99.90
2017-07-24T01:13:24.186Z,99.90
2017-07-24T01:15:51.787Z,99.90
2017-07-24T01:18:19.387Z,99.90
2017-07-24T01:20:47.000Z,99.90
2017-07-24T01:23:14.808Z,99.90
2017-07-24T01:25:42.533Z,99.90
2017-07-24T01:28:10.874Z,99.90
2017-07-24T01:30:38.460Z,99.90
2017-07-24T01:33:17.273Z,99.90
2017-07-24T01:35:46.664Z,99.90
2017-07-24T01:38:14.296Z,99.90
2017-07-24T01:40:41.967Z,99.90
2017-07-24T01:43:09.573Z,99.90
2017-07-24T01:45:37.972Z,99.90
2017-07-24T01:48:05.564Z,99.90
2017-07-24T01:50:33.130Z,99.90
2017-07-24T01:53:00.704Z,99.90
2017-07-24T01:55:29.510Z,99.90
2017-07-24T01:57:57.814Z,99.90
2017-07-24T02:00:25.361Z,99.90
2017-07-24T02:02:52.913Z,99.90
2017-07-24T02:05:21.230Z,99.90
2017-07-24T02:07:48.803Z,99.90
2017-07-24T02:10:16.519Z,99.90
2017-07-24T02:12:44.090Z,99.90
2017-07-24T02:15:11.672Z,99.90
2017-07-24T02:17:39.220Z,99.90
2017-07-24T02:20:06.793Z,99.90
2017-07-24T02:22:34.320Z,99.90
2017-07-24T02:25:01.898Z,99.90
2017-07-24T02:27:29.571Z,99.90
2017-07-24T02:29:57.173Z,99.90
2017-07-24T02:32:24.725Z,99.90
2017-07-24T02:34:53.087Z,99.90
2017-07-24T02:37:20.661Z,99.90
2017-07-24T02:39:48.978Z,99.90
2017-07-24T02:42:16.566Z,99.90
2017-07-24T02:44:44.138Z,99.90
2017-07-24T02:47:11.714Z,99.90
2017-07-24T02:49:40.041Z,99.90
2017-07-24T02:52:07.605Z,99.90
2017-07-24T02:54:35.157Z,99.90
2017-07-24T02:57:02.766Z,99.90
2017-07-24T02:59:30.322Z,99.90
2017-07-24T03:01:58.661Z,99.90
2017-07-24T03:04:26.221Z,99.90
2017-07-24T03:06:53.789Z,99.90
2017-07-24T03:09:21.444Z,99.90
2017-07-24T03:11:49.019Z,99.90
2017-07-24T03:14:16.581Z,99.90
2017-07-24T03:16:44.130Z,99.90
2017-07-24T03:19:11.718Z,99.90
2017-07-24T03:21:39.291Z,99.90
2017-07-24T03:24:06.851Z,99.90
2017-07-24T03:26:34.461Z,99.90
2017-07-24T03:29:02.010Z,99.90
2017-07-24T03:31:29.580Z,99.90
2017-07-24T03:33:57.129Z,99.90
2017-07-24T03:36:24.762Z,99.90
2017-07-24T03:38:52.341Z,99.90
2017-07-24T03:41:19.907Z,99.90
2017-07-24T03:43:47.467Z,99.90
2017-07-24T03:46:15.243Z,99.90
2017-07-24T03:48:42.806Z,99.90
2017-07-24T03:51:10.454Z,99.90
2017-07-24T03:53:38.198Z,99.90
2017-07-24T03:56:05.758Z,99.90
2017-07-24T03:58:33.323Z,99.90
2017-07-24T04:01:01.043Z,99.90
2017-07-24T04:03:29.402Z,99.90
2017-07-24T04:05:56.958Z,99.90
2017-07-24T04:08:24.638Z,99.90
2017-07-24T04:10:52.187Z,99.90
2017-07-24T04:13:19.759Z,99.90
2017-07-24T04:15:47.338Z,99.90
2017-07-24T04:18:15.674Z,99.90
2017-07-24T04:20:43.237Z,99.90
2017-07-24T04:23:10.810Z,99.90
2017-07-24T04:25:38.442Z,99.90
2017-07-24T04:28:06.060Z,99.90
2017-07-24T04:30:34.443Z,99.90
2017-07-24T04:33:02.017Z,99.90
2017-07-24T04:35:29.575Z,99.90
2017-07-24T04:37:57.163Z,99.90
2017-07-24T04:40:24.743Z,99.90
2017-07-24T04:42:52.368Z,99.90
2017-07-24T04:45:20.581Z,99.90
2017-07-24T04:47:48.298Z,99.90
2017-07-24T04:50:15.852Z,99.90
2017-07-24T04:52:43.406Z,99.90
2017-07-24T04:55:11.751Z,99.90
2017-07-24T04:57:39.302Z,99.90
2017-07-24T05:00:06.882Z,99.90
2017-07-24T05:02:34.455Z,99.90
2017-07-24T05:05:02.007Z,99.90
2017-07-24T05:07:30.335Z,99.90
2017-07-24T05:09:57.919Z,99.90
2017-07-24T05:12:25.504Z,99.90
2017-07-24T05:14:53.062Z,99.90
2017-07-24T05:17:20.617Z,99.90
2017-07-24T05:19:48.179Z,99.90
2017-07-24T05:22:15.754Z,99.90
2017-07-24T05:24:44.082Z,99.90
2017-07-24T05:27:11.626Z,99.90
2017-07-24T05:29:39.209Z,99.90
2017-07-24T05:32:06.771Z,99.90
2017-07-24T05:34:34.310Z,99.90
2017-07-24T05:37:01.912Z,99.90
2017-07-24T05:39:29.454Z,99.90
2017-07-24T05:41:57.035Z,99.90
2017-07-24T05:44:24.695Z,99.90
2017-07-24T05:46:53.159Z,99.90
2017-07-24T05:49:20.742Z,99.90
2017-07-24T05:51:48.285Z,99.90
2017-07-24T05:54:15.854Z,99.90
2017-07-24T05:56:43.415Z,99.90
2017-07-24T05:59:10.965Z,99.90
2017-07-24T06:01:39.311Z,99.90
2017-07-24T06:04:06.888Z,99.90
2017-07-24T06:06:34.436Z,99.90
2017-07-24T06:09:02.013Z,99.90
2017-07-24T06:11:29.578Z,99.90
2017-07-24T06:13:57.912Z,99.90
2017-07-24T06:16:25.469Z,99.90
2017-07-24T06:18:53.027Z,99.90
2017-07-24T06:21:20.623Z,99.90
2017-07-24T06:23:48.178Z,99.90
2017-07-24T06:26:15.726Z,99.90
2017-07-24T06:28:43.290Z,99.90
2017-07-24T06:31:10.927Z,99.90
2017-07-24T06:33:38.530Z,99.90
2017-07-24T06:36:06.086Z,99.90
2017-07-24T06:38:33.645Z,99.90
2017-07-24T06:41:01.214Z,99.90
2017-07-24T06:43:28.787Z,99.90
2017-07-24T06:45:56.372Z,99.90
2017-07-24T06:48:24.706Z,99.90
2017-07-24T06:50:52.282Z,99.90
2017-07-24T06:53:19.918Z,99.90
2017-07-24T06:55:48.509Z,99.90
2017-07-24T06:58:16.171Z,99.90
2017-07-24T07:00:43.730Z,99.90
2017-07-24T07:03:11.321Z,99.90
2017-07-24T07:05:38.881Z,99.90
2017-07-24T07:08:06.508Z,99.90
2017-07-24T07:10:34.026Z,99.90
2017-07-24T07:13:02.357Z,99.90
2017-07-24T07:15:29.967Z,99.90
2017-07-24T07:17:58.290Z,99.90
2017-07-24T07:20:25.871Z,99.90
2017-07-24T07:22:53.420Z,99.90
2017-07-24T07:25:20.982Z,99.90
2017-07-24T07:27:48.541Z,99.90
2017-07-24T07:30:16.125Z,99.90
2017-07-24T07:32:43.697Z,99.90
2017-07-24T07:35:11.382Z,99.90
2017-07-24T07:37:38.946Z,99.90
2017-07-24T07:40:06.531Z,99.90
2017-07-24T07:42:34.096Z,99.90
2017-07-24T07:45:01.709Z,99.90
2017-07-24T07:47:29.278Z,99.90
2017-07-24T07:49:56.845Z,99.90
2017-07-24T07:52:24.390Z,99.90
2017-07-24T07:54:51.945Z,99.90
2017-07-24T07:57:19.514Z,99.90
2017-07-24T07:59:47.110Z,99.90
2017-07-24T08:02:14.650Z,99.90
2017-07-24T08:04:42.402Z,99.90
2017-07-24T08:07:10.004Z,99.90
2017-07-24T08:09:38.329Z,99.90
2017-07-24T08:12:05.902Z,99.90
2017-07-24T08:14:33.446Z,99.90
2017-07-24T08:17:01.033Z,99.90
2017-07-24T08:19:28.594Z,99.90
2017-07-24T08:21:56.158Z,99.90
2017-07-24T08:24:23.717Z,99.90
2017-07-24T08:26:51.268Z,99.90
2017-07-24T08:29:18.842Z,99.90
2017-07-24T08:31:46.406Z,99.90
2017-07-24T08:34:13.977Z,99.90
2017-07-24T08:36:41.595Z,99.90
2017-07-24T08:39:09.185Z,99.90
2017-07-24T08:41:36.754Z,99.90
2017-07-24T08:44:04.316Z,99.90
2017-07-24T08:46:31.937Z,99.90
2017-07-24T08:49:00.351Z,99.90
2017-07-24T08:51:27.921Z,99.90
2017-07-24T08:53:55.521Z,99.90
2017-07-24T08:56:23.104Z,99.90
2017-07-24T08:58:50.753Z,99.90
2017-07-24T09:01:18.319Z,99.90
2017-07-24T09:03:45.831Z,99.90
2017-07-24T09:06:13.394Z,99.90
2017-07-24T09:08:40.978Z,99.90
2017-07-24T09:11:08.576Z,99.90
2017-07-24T09:13:36.905Z,99.90
2017-07-24T09:16:04.520Z,99.90
2017-07-24T09:18:32.832Z,99.90
2017-07-24T09:21:00.381Z,99.90
2017-07-24T09:23:28.086Z,99.90
2017-07-24T09:25:55.635Z,99.90
2017-07-24T09:28:23.296Z,99.90
2017-07-24T09:30:50.986Z,99.90
2017-07-24T09:33:18.566Z,99.90
2017-07-24T09:35:46.173Z,99.90
2017-07-24T09:38:15.377Z,99.90
2017-07-24T09:40:42.970Z,99.90
2017-07-24T09:43:11.437Z,99.90
2017-07-24T09:45:42.922Z,99.90
2017-07-24T09:48:11.607Z,99.90
2017-07-24T09:50:39.147Z,99.90
2017-07-24T09:53:06.693Z,99.90
2017-07-24T09:55:34.263Z,99.90
2017-07-24T09:58:01.895Z,99.90
2017-07-24T10:00:29.594Z,99.90
2017-07-24T10:02:57.119Z,99.90
2017-07-24T10:05:24.721Z,99.90
2017-07-24T10:07:52.478Z,99.90
2017-07-24T10:10:20.038Z,99.90
2017-07-24T10:12:47.599Z,99.90
2017-07-24T10:15:15.187Z,99.90
2017-07-24T10:17:42.750Z,99.90
2017-07-24T10:20:10.322Z,99.90
2017-07-24T10:22:37.921Z,99.90
2017-07-24T10:25:05.498Z,99.90
2017-07-24T10:27:33.168Z,99.90
2017-07-24T10:30:00.896Z,99.90
2017-07-24T10:32:28.499Z,99.90
2017-07-24T10:34:56.066Z,99.90
2017-07-24T10:37:25.008Z,99.90
2017-07-24T10:39:53.423Z,99.90
2017-07-24T10:42:21.021Z,99.90
2017-07-24T10:44:48.622Z,99.90
2017-07-24T10:47:20.462Z,99.90
2017-07-24T10:49:48.123Z,99.90
2017-07-24T10:52:15.690Z,99.90
2017-07-24T10:54:43.309Z,99.90
2017-07-24T10:57:10.900Z,99.90
2017-07-24T10:59:38.658Z,99.90
2017-07-24T11:02:06.246Z,99.90
2017-07-24T11:04:33.806Z,99.90
2017-07-24T11:07:01.415Z,99.90
2017-07-24T11:09:29.895Z,99.90
2017-07-24T11:11:58.230Z,99.90
2017-07-24T11:14:25.873Z,99.90
2017-07-24T11:16:53.642Z,99.90
2017-07-24T11:19:21.220Z,99.90
2017-07-24T11:21:48.806Z,99.90
2017-07-24T11:24:16.502Z,99.90
2017-07-24T11:26:44.810Z,99.90
2017-07-24T11:29:12.370Z,99.90
2017-07-24T11:31:39.989Z,98.10
2017-07-24T11:34:07.617Z,98.00
2017-07-24T11:36:35.192Z,94.60
2017-07-24T11:39:02.742Z,93.30
2017-07-24T11:41:30.330Z,90.60
2017-07-24T11:43:58.692Z,90.90
2017-07-24T11:46:26.287Z,90.70
2017-07-24T11:48:54.610Z,92.60
2017-07-24T11:51:22.336Z,92.60
2017-07-24T11:53:50.696Z,94.90
2017-07-24T11:56:18.258Z,95.00
2017-07-24T11:58:46.606Z,93.30
2017-07-24T12:01:14.155Z,93.30
2017-07-24T12:03:41.733Z,93.30
2017-07-24T12:06:09.411Z,93.00
2017-07-24T12:08:36.991Z,95.90
2017-07-24T12:11:05.311Z,99.80
2017-07-24T12:13:32.882Z,99.70
2017-07-24T12:16:00.470Z,99.90
2017-07-24T12:18:28.085Z,99.90
2017-07-24T12:20:55.657Z,99.90
2017-07-24T12:23:23.209Z,99.90
2017-07-24T12:25:50.791Z,99.90
2017-07-24T12:28:18.350Z,99.90
2017-07-24T12:30:45.919Z,98.40
2017-07-24T12:33:13.478Z,99.90
2017-07-24T12:35:41.193Z,98.00
2017-07-24T12:38:08.794Z,99.50
2017-07-24T12:40:36.342Z,99.20
2017-07-24T12:43:03.922Z,99.90
2017-07-24T12:45:31.494Z,99.90
2017-07-24T12:47:59.049Z,99.90
2017-07-24T12:50:26.593Z,99.90
2017-07-24T12:52:54.153Z,99.90
2017-07-24T12:55:21.722Z,99.40
2017-07-24T12:57:50.046Z,96.60
2017-07-24T13:00:17.702Z,96.60
2017-07-24T13:02:45.250Z,91.20
2017-07-24T13:05:12.835Z,89.70
2017-07-24T13:07:40.405Z,88.60
2017-07-24T13:10:07.991Z,78.80
2017-07-24T13:12:35.547Z,82.20
2017-07-24T13:15:03.135Z,75.30
2017-07-24T13:17:31.460Z,84.20
2017-07-24T13:19:59.010Z,84.10
2017-07-24T13:22:26.634Z,85.30
2017-07-24T13:24:54.199Z,88.20
2017-07-24T13:27:21.758Z,93.20
2017-07-24T13:29:49.326Z,95.60
2017-07-24T13:32:16.904Z,97.30
2017-07-24T13:34:44.485Z,96.90
2017-07-24T13:37:12.836Z,99.90
2017-07-24T13:39:40.437Z,99.90
2017-07-24T13:42:07.995Z,99.90
2017-07-24T13:44:35.627Z,99.90
2017-07-24T13:47:03.935Z,99.90
2017-07-24T13:49:31.512Z,99.90
2017-07-24T13:51:59.077Z,99.90
2017-07-24T13:54:26.643Z,99.90
2017-07-24T13:56:54.226Z,99.90
2017-07-24T13:59:21.789Z,99.90
2017-07-24T14:01:49.362Z,99.90
2017-07-24T14:04:16.947Z,99.90
2017-07-24T14:06:45.430Z,99.90
2017-07-24T14:09:12.998Z,99.90
2017-07-24T14:11:41.322Z,99.90
2017-07-24T14:14:08.884Z,99.90
2017-07-24T14:16:36.536Z,99.90
2017-07-24T14:19:04.092Z,99.90
2017-07-24T14:21:31.669Z,99.90
2017-07-24T14:23:59.229Z,99.90
2017-07-24T14:26:26.843Z,99.90
2017-07-24T14:28:54.394Z,99.90
2017-07-24T14:31:21.955Z,99.90
2017-07-24T14:33:49.537Z,99.90
2017-07-24T14:36:17.862Z,99.90
2017-07-24T14:38:45.442Z,99.90
2017-07-24T14:41:13.003Z,99.90
2017-07-24T14:43:40.617Z,99.90
2017-07-24T14:46:08.216Z,99.90
2017-07-24T14:48:35.915Z,99.90
2017-07-24T14:51:04.249Z,99.90
2017-07-24T14:53:31.830Z,99.90
2017-07-24T14:55:59.392Z,99.40
2017-07-24T14:58:27.726Z,97.00
2017-07-24T15:00:55.298Z,96.60
2017-07-24T15:03:22.869Z,95.80
2017-07-24T15:05:50.445Z,93.60
2017-07-24T15:08:18.027Z,94.70
2017-07-24T15:10:46.511Z,94.80
2017-07-24T15:13:14.835Z,94.60
2017-07-24T15:15:42.395Z,94.70
2017-07-24T15:18:10.052Z,94.70
2017-07-24T15:20:37.672Z,95.20
2017-07-24T15:23:05.232Z,94.90
2017-07-24T15:25:32.810Z,95.80
2017-07-24T15:28:01.130Z,95.80
2017-07-24T15:30:28.703Z,95.80
2017-07-24T15:32:56.290Z,97.20
2017-07-24T15:35:23.883Z,97.00
2017-07-24T15:37:52.215Z,96.30
2017-07-24T15:40:19.777Z,96.30
2017-07-24T15:42:47.354Z,95.80
2017-07-24T15:45:14.927Z,95.10
2017-07-24T15:47:43.275Z,95.70
2017-07-24T15:50:10.867Z,95.70
2017-07-24T15:52:39.207Z,94.90
2017-07-24T15:55:06.764Z,94.90
2017-07-24T15:57:34.349Z,94.60
2017-07-24T16:00:01.906Z,94.30
2017-07-24T16:02:29.462Z,94.90
2017-07-24T16:04:57.030Z,94.50
2017-07-24T16:07:24.626Z,94.70
2017-07-24T16:09:52.983Z,95.00
2017-07-24T16:12:20.571Z,95.00
2017-07-24T16:14:48.142Z,94.70
2017-07-24T16:17:16.487Z,95.70
2017-07-24T16:19:44.223Z,95.70
2017-07-24T16:22:11.885Z,95.20
2017-07-24T16:24:39.468Z,96.20
2017-07-24T16:27:07.124Z,95.20
2017-07-24T16:29:34.678Z,94.70
2017-07-24T16:32:02.231Z,96.10
2017-07-24T16:34:29.792Z,94.80
2017-07-24T16:36:57.363Z,94.90
2017-07-24T16:39:24.952Z,94.30
2017-07-24T16:41:52.515Z,94.80
2017-07-24T16:44:20.166Z,95.20
2017-07-24T16:46:47.791Z,95.70
2017-07-24T16:49:16.143Z,96.00
2017-07-24T16:51:43.789Z,95.90
2017-07-24T16:54:11.427Z,96.70
2017-07-24T16:56:38.989Z,97.40
2017-07-24T16:59:06.596Z,97.60
2017-07-24T17:01:34.276Z,98.70
2017-07-24T17:04:02.632Z,98.60
2017-07-24T17:06:30.365Z,98.50
2017-07-24T17:08:58.723Z,99.50
2017-07-24T17:11:36.220Z,99.50
2017-07-24T17:14:03.850Z,99.50
2017-07-24T17:16:31.454Z,99.90
2017-07-24T17:18:59.792Z,99.90
2017-07-24T17:21:27.336Z,99.90
2017-07-24T17:23:54.894Z,99.50
2017-07-24T17:26:22.450Z,99.70
2017-07-24T17:28:50.024Z,99.80
2017-07-24T17:31:17.624Z,98.90
2017-07-24T17:33:45.398Z,97.90
2017-07-24T17:36:13.127Z,99.90
2017-07-24T17:38:40.821Z,99.20
2017-07-24T17:41:08.705Z,99.30
2017-07-24T17:43:36.565Z,98.00
2017-07-24T17:46:04.242Z,98.70
2017-07-24T17:48:31.905Z,98.80
2017-07-24T17:50:59.592Z,98.80
2017-07-24T17:53:27.289Z,99.90
2017-07-24T17:55:56.937Z,99.90
2017-07-24T17:58:25.016Z,99.90
2017-07-24T18:00:52.781Z,99.90
2017-07-24T18:03:20.367Z,99.90
2017-07-24T18:05:48.152Z,99.90
2017-07-24T18:08:15.799Z,99.90
2017-07-24T18:10:43.415Z,99.90
2017-07-24T18:13:12.030Z,99.90
2017-07-24T18:15:39.753Z,99.90
2017-07-24T18:18:07.423Z,99.90
2017-07-24T18:20:36.076Z,99.90
2017-07-24T18:23:04.920Z,99.90
2017-07-24T18:28:06.970Z,99.90
2017-07-24T18:30:34.811Z,99.90
2017-07-24T18:33:02.689Z,99.90
2017-07-24T18:35:30.487Z,99.90
2017-07-24T18:37:58.847Z,99.90
2017-07-24T18:40:26.474Z,99.90
2017-07-24T18:42:54.180Z,99.90
2017-07-24T18:45:21.920Z,99.90
2017-07-24T18:47:50.754Z,99.90
2017-07-24T18:50:18.923Z,99.90
2017-07-24T18:52:47.514Z,99.90
2017-07-24T18:55:15.949Z,99.90
2017-07-24T18:57:43.729Z,99.90
2017-07-24T19:00:11.450Z,99.90
2017-07-24T19:02:39.304Z,99.90
2017-07-24T19:05:06.954Z,99.90
2017-07-24T19:07:34.587Z,99.90
2017-07-24T19:10:02.240Z,99.90
2017-07-24T19:12:30.546Z,99.90
2017-07-24T19:14:59.031Z,99.90
2017-07-24T19:17:27.736Z,99.90
2017-07-24T19:19:56.394Z,99.90
2017-07-24T19:22:24.031Z,99.90
2017-07-24T19:24:51.594Z,99.90
2017-07-24T19:27:19.186Z,99.90
2017-07-24T19:29:46.880Z,99.90
2017-07-24T19:32:14.491Z,99.90
2017-07-24T19:34:42.146Z,99.90
2017-07-24T19:37:09.738Z,99.90
2017-07-24T19:39:37.292Z,99.90
2017-07-24T19:42:04.914Z,99.90
2017-07-24T19:44:32.489Z,99.90
2017-07-24T19:47:00.252Z,99.90
2017-07-24T19:49:27.828Z,99.90
2017-07-24T19:51:55.405Z,99.90
2017-07-24T19:54:23.005Z,99.90
2017-07-24T19:56:50.680Z,99.90
2017-07-24T19:59:18.265Z,99.90
2017-07-24T20:01:45.856Z,99.90
2017-07-24T20:04:13.443Z,99.90
2017-07-24T20:06:41.794Z,99.90
2017-07-24T20:09:10.310Z,99.90
2017-07-24T20:11:38.874Z,99.90
2017-07-24T20:14:06.526Z,99.90
2017-07-24T20:16:34.124Z,99.90
2017-07-24T20:19:02.165Z,99.90
2017-07-24T20:21:30.026Z,99.90
2017-07-24T20:23:58.554Z,99.90
2017-07-24T20:26:26.224Z,99.90
2017-07-24T20:28:53.777Z,99.90
2017-07-24T20:31:21.418Z,99.90
2017-07-24T20:33:49.058Z,99.90
2017-07-24T20:36:16.665Z,99.90
2017-07-24T20:38:44.313Z,99.90
2017-07-24T20:41:12.168Z,99.90
2017-07-24T20:43:39.842Z,99.90
2017-07-24T20:46:08.313Z,99.90
2017-07-24T20:48:36.739Z,99.90
2017-07-24T20:51:14.927Z,99.90
2017-07-24T20:53:42.564Z,99.90
2017-07-24T20:56:11.198Z,99.90
2017-07-24T20:58:38.793Z,99.90
2017-07-24T21:01:06.468Z,99.90
2017-07-24T21:03:34.187Z,99.90
2017-07-24T21:06:01.796Z,99.90
2017-07-24T21:08:29.381Z,99.90
2017-07-24T21:10:57.000Z,99.90
2017-07-24T21:13:25.463Z,99.90
2017-07-24T21:15:53.049Z,99.90
2017-07-24T21:18:20.677Z,99.90
2017-07-24T21:20:48.250Z,99.90
2017-07-24T21:23:15.836Z,99.90
2017-07-24T21:25:44.121Z,99.90
2017-07-24T21:28:11.802Z,99.90
2017-07-24T21:30:40.317Z,99.90
2017-07-24T21:33:07.942Z,99.90
2017-07-24T21:35:35.510Z,99.90
2017-07-24T21:38:03.861Z,99.90
2017-07-24T21:40:31.439Z,99.90
2017-07-24T21:42:59.837Z,99.90
2017-07-24T21:45:28.195Z,99.90
2017-07-24T21:47:55.785Z,99.90
2017-07-24T21:50:23.379Z,99.90
2017-07-24T21:52:51.003Z,99.90
2017-07-24T21:55:19.426Z,99.90
2017-07-24T21:57:47.290Z,99.90
2017-07-24T22:00:15.001Z,99.90
2017-07-24T22:02:42.642Z,99.90
2017-07-24T22:05:10.380Z,99.90
2017-07-24T22:07:38.189Z,99.90
2017-07-24T22:10:05.852Z,99.90
2017-07-24T22:12:33.509Z,99.90
2017-07-24T22:15:01.142Z,99.90
2017-07-24T22:17:28.711Z,99.90
2017-07-24T22:19:56.496Z,99.90
2017-07-24T22:22:24.112Z,99.90
2017-07-24T22:24:52.025Z,99.90
2017-07-24T22:27:19.610Z,99.90
2017-07-24T22:29:47.194Z,99.90
2017-07-24T22:32:14.846Z,99.90
2017-07-24T22:34:43.262Z,99.90
2017-07-24T22:37:10.936Z,99.90
2017-07-24T22:39:48.665Z,99.90
2017-07-24T22:42:16.403Z,99.90
2017-07-24T22:44:44.087Z,99.90
2017-07-24T22:47:11.791Z,99.90
2017-07-24T22:49:40.126Z,99.90
2017-07-24T22:52:07.774Z,99.90
2017-07-24T22:54:35.636Z,99.90
2017-07-24T22:57:13.908Z,99.90
2017-07-24T22:59:42.366Z,99.90
2017-07-24T23:02:10.032Z,99.90
2017-07-24T23:04:37.608Z,99.90
2017-07-24T23:07:05.279Z,99.90
2017-07-24T23:09:33.150Z,99.90
2017-07-24T23:12:03.157Z,99.90
2017-07-24T23:14:30.731Z,99.90
2017-07-24T23:17:00.370Z,99.90
2017-07-24T23:19:28.851Z,99.90
2017-07-24T23:21:56.482Z,99.90
2017-07-24T23:24:25.491Z,99.90
2017-07-24T23:26:53.229Z,99.90
2017-07-24T23:29:20.815Z,99.90
2017-07-24T23:31:49.222Z,99.90
2017-07-24T23:34:16.809Z,99.90
2017-07-24T23:36:44.406Z,99.90
2017-07-24T23:39:12.057Z,99.90
2017-07-24T23:41:39.706Z,99.90
2017-07-24T23:44:07.343Z,99.90
2017-07-24T23:46:34.978Z,99.90
2017-07-24T23:49:03.407Z,99.90
2017-07-24T23:51:32.775Z,99.90
2017-07-24T23:54:00.462Z,99.90
2017-07-24T23:56:28.125Z,99.90
2017-07-24T23:58:55.693Z,99.90
